Time;durP1;ratioP1;P1;durP2;ratioP2;P2;SDS_P1;SDS_P2;PMS_P1;PMS_P2;Temp;Humidity;BMP_temperature;BMP_pressure;BME280_temperature;BME280_humidity;BME280_pressure;Samples;Min_cycle;Max_cycle;Signal;HPM_P1;HPM_P2
2022/04/10 00:01:28;;;;;;;6.67;2.90;;;3.50;92.30;;;;;;5119655;28;20718;-77
2022/04/10 00:03:53;;;;;;;5.60;3.20;;;3.50;98.10;;;;;;5120056;28;20188;-76
2022/04/10 00:06:19;;;;;;;6.80;2.93;;;3.50;99.90;;;;;;5118973;28;20652;-76
2022/04/10 00:08:45;;;;;;;9.20;3.63;;;3.40;99.90;;;;;;5120690;28;20169;-76
2022/04/10 00:11:10;;;;;;;6.63;3.00;;;3.40;99.90;;;;;;5119626;28;20193;-76
2022/04/10 00:13:37;;;;;;;6.70;3.27;;;3.40;99.90;;;;;;5100949;28;20205;-76
2022/04/10 00:16:03;;;;;;;6.13;2.83;;;3.40;99.90;;;;;;5118544;28;20169;-76
2022/04/10 00:18:28;;;;;;;7.13;3.23;;;3.40;99.90;;;;;;5118044;28;20180;-76
2022/04/10 00:20:54;;;;;;;8.50;3.10;;;3.40;99.90;;;;;;5117304;28;20224;-76
2022/04/10 00:23:19;;;;;;;9.43;3.27;;;3.40;99.90;;;;;;5117846;28;20166;-76
2022/04/10 00:25:45;;;;;;;4.97;2.80;;;3.30;99.90;;;;;;5098816;28;20185;-76
2022/04/10 00:28:10;;;;;;;4.57;3.13;;;3.30;99.90;;;;;;5116643;28;20188;-76
2022/04/10 00:30:36;;;;;;;9.53;3.27;;;3.30;99.90;;;;;;5098287;28;20208;-77
2022/04/10 00:33:02;;;;;;;9.13;3.53;;;3.30;99.90;;;;;;5098082;28;20308;-78
2022/04/10 00:35:27;;;;;;;8.63;3.20;;;3.30;99.90;;;;;;5117838;28;20204;-77
2022/04/10 00:37:53;;;;;;;10.00;3.40;;;3.30;99.90;;;;;;5120295;28;20223;-77
2022/04/10 00:40:18;;;;;;;12.17;3.23;;;3.30;99.90;;;;;;5100228;28;20217;-77
2022/04/10 00:42:48;;;;;;;8.60;3.17;;;3.20;99.90;;;;;;5098177;28;20185;-77
2022/04/10 00:45:16;;;;;;;8.20;3.23;;;3.60;99.90;;;;;;5099163;28;20185;-77
2022/04/10 00:47:44;;;;;;;9.73;3.40;;;3.20;99.90;;;;;;5097854;28;20182;-77
2022/04/10 00:50:11;;;;;;;8.60;3.20;;;3.20;99.90;;;;;;5116448;28;20221;-78
2022/04/10 00:52:38;;;;;;;7.10;3.20;;;3.20;99.90;;;;;;5098190;28;20182;-77
2022/04/10 00:55:05;;;;;;;5.60;3.03;;;3.20;99.90;;;;;;5116840;28;20189;-76
2022/04/10 00:57:31;;;;;;;5.30;3.17;;;3.20;99.90;;;;;;5115961;28;20318;-78
2022/04/10 00:59:56;;;;;;;4.67;2.93;;;3.20;99.90;;;;;;5098191;28;20216;-77
2022/04/10 01:02:22;;;;;;;7.57;3.70;;;3.20;99.90;;;;;;5116354;28;20186;-76
2022/04/10 01:04:48;;;;;;;7.87;3.40;;;3.20;99.90;;;;;;5098958;28;20189;-76
2022/04/10 01:07:15;;;;;;;6.23;2.93;;;3.20;99.90;;;;;;5117301;28;20260;-76
2022/04/10 01:09:41;;;;;;;9.53;3.30;;;3.20;99.90;;;;;;5098105;28;20688;-76
2022/04/10 01:12:11;;;;;;;6.73;3.03;;;3.20;99.90;;;;;;5116896;28;20193;-76
2022/04/10 01:14:37;;;;;;;6.00;3.60;;;3.20;99.90;;;;;;5117316;28;20192;-76
2022/04/10 01:17:07;;;;;;;6.13;3.47;;;3.20;99.90;;;;;;5099586;28;20208;-76
2022/04/10 01:19:33;;;;;;;7.67;3.70;;;3.20;99.90;;;;;;5117048;28;20205;-76
2022/04/10 01:22:02;;;;;;;10.10;3.33;;;3.20;99.90;;;;;;5099159;28;20192;-76
2022/04/10 01:24:28;;;;;;;10.63;3.67;;;3.20;99.90;;;;;;5117978;28;20629;-76
2022/04/10 01:26:54;;;;;;;6.70;3.10;;;3.20;99.90;;;;;;5117462;28;20230;-76
2022/04/10 01:29:19;;;;;;;7.67;3.03;;;3.20;99.90;;;;;;5099242;28;20192;-77
2022/04/10 01:31:46;;;;;;;9.07;3.43;;;3.20;99.90;;;;;;5098521;28;20178;-76
2022/04/10 01:34:14;;;;;;;7.67;3.30;;;3.20;99.90;;;;;;5117197;28;20184;-77
2022/04/10 01:36:41;;;;;;;10.50;3.73;;;3.20;99.90;;;;;;5116363;28;20633;-77
2022/04/10 01:39:08;;;;;;;11.30;3.47;;;3.10;99.90;;;;;;5098134;28;20254;-76
2022/04/10 01:41:34;;;;;;;8.10;3.27;;;3.20;99.90;;;;;;5116223;28;20221;-78
2022/04/10 01:44:00;;;;;;;9.60;3.47;;;3.10;99.90;;;;;;5115881;28;20180;-77
2022/04/10 01:46:28;;;;;;;6.17;3.43;;;3.10;99.90;;;;;;5101447;28;20185;-76
2022/04/10 01:48:54;;;;;;;10.40;4.00;;;3.10;99.90;;;;;;5102812;28;20216;-76
2022/04/10 01:51:19;;;;;;;5.63;3.20;;;3.10;99.90;;;;;;5102041;28;20224;-76
2022/04/10 01:53:45;;;;;;;6.10;3.33;;;3.10;99.90;;;;;;5121645;28;20181;-76
2022/04/10 01:56:11;;;;;;;4.70;2.83;;;3.00;99.90;;;;;;5105553;28;20538;-76
2022/04/10 01:58:40;;;;;;;4.93;3.23;;;2.90;99.90;;;;;;5124112;28;20551;-77
2022/04/10 02:01:08;;;;;;;7.90;3.10;;;2.80;99.90;;;;;;5121227;28;20205;-77
2022/04/10 02:03:34;;;;;;;4.77;3.33;;;2.70;99.90;;;;;;5119907;28;20673;-76
2022/04/10 02:06:00;;;;;;;13.00;3.33;;;2.60;99.90;;;;;;5119712;28;20181;-76
2022/04/10 02:08:27;;;;;;;8.87;3.20;;;2.50;99.90;;;;;;5120063;28;20754;-76
2022/04/10 02:10:52;;;;;;;4.53;2.87;;;2.40;99.90;;;;;;5120174;28;20209;-76
2022/04/10 02:13:19;;;;;;;7.67;2.90;;;2.40;99.90;;;;;;5120294;28;20597;-77
2022/04/10 02:15:45;;;;;;;4.43;2.87;;;2.30;99.90;;;;;;5119995;28;20174;-76
2022/04/10 02:18:10;;;;;;;7.67;3.30;;;2.20;99.90;;;;;;5101186;28;20181;-76
2022/04/10 02:20:36;;;;;;;4.83;3.00;;;2.10;99.90;;;;;;5119362;28;20284;-77
2022/04/10 02:23:02;;;;;;;5.70;3.00;;;2.10;99.90;;;;;;5101163;28;20185;-77
2022/04/10 02:25:27;;;;;;;5.33;3.10;;;2.00;99.90;;;;;;5119457;28;20177;-77
2022/04/10 02:27:53;;;;;;;7.60;3.20;;;1.90;99.90;;;;;;5101654;28;20180;-76
2022/04/10 02:30:18;;;;;;;3.83;2.67;;;1.90;99.90;;;;;;5101547;28;20212;-76
2022/04/10 02:32:44;;;;;;;6.17;3.00;;;1.80;99.90;;;;;;5119877;28;20238;-76
2022/04/10 02:35:11;;;;;;;6.93;3.07;;;1.80;99.90;;;;;;5120017;28;20189;-77
2022/04/10 02:37:36;;;;;;;5.63;2.83;;;1.80;99.90;;;;;;5119845;28;20177;-77
2022/04/10 02:40:07;;;;;;;5.17;3.13;;;1.70;99.90;;;;;;5119771;28;20212;-77
2022/04/10 02:42:34;;;;;;;6.60;3.67;;;1.70;99.90;;;;;;5101446;28;20192;-77
2022/04/10 02:45:03;;;;;;;4.07;3.17;;;1.70;99.90;;;;;;5100975;28;20597;-76
2022/04/10 02:47:32;;;;;;;5.73;3.30;;;1.60;99.90;;;;;;5119524;28;20192;-76
2022/04/10 02:49:57;;;;;;;4.57;3.10;;;1.60;99.90;;;;;;5102125;28;20252;-76
2022/04/10 02:52:23;;;;;;;8.00;3.30;;;1.60;99.90;;;;;;5120895;28;20181;-77
2022/04/10 02:54:49;;;;;;;5.80;3.33;;;1.60;99.90;;;;;;5101951;28;20715;-77
2022/04/10 02:57:14;;;;;;;5.80;3.13;;;1.60;99.90;;;;;;5119166;28;20182;-77
2022/04/10 02:59:40;;;;;;;9.40;3.90;;;1.60;99.90;;;;;;5100489;28;20266;-77
2022/04/10 03:02:06;;;;;;;7.40;3.43;;;1.60;99.90;;;;;;5118789;28;20533;-77
2022/04/10 03:04:31;;;;;;;8.30;3.70;;;1.50;99.90;;;;;;5118323;28;20264;-77
2022/04/10 03:06:57;;;;;;;6.50;3.63;;;1.50;99.90;;;;;;5118887;28;20544;-77
2022/04/10 03:09:22;;;;;;;8.73;4.27;;;1.60;99.90;;;;;;5101021;28;20185;-77
2022/04/10 03:11:48;;;;;;;8.50;3.20;;;1.60;99.90;;;;;;5101520;28;20181;-77
2022/04/10 03:14:14;;;;;;;8.63;4.70;;;1.60;99.90;;;;;;5120394;28;20184;-77
2022/04/10 03:16:39;;;;;;;5.13;3.33;;;1.60;99.90;;;;;;5101302;28;20183;-77
2022/04/10 03:19:05;;;;;;;7.60;3.40;;;1.70;99.90;;;;;;5119622;28;20230;-77
2022/04/10 03:21:31;;;;;;;6.43;3.40;;;1.50;99.90;;;;;;5100137;28;20655;-76
2022/04/10 03:23:56;;;;;;;5.53;3.80;;;1.50;99.90;;;;;;5118764;28;20234;-76
2022/04/10 03:26:22;;;;;;;5.80;3.37;;;1.40;99.90;;;;;;5118814;28;20180;-77
2022/04/10 03:28:47;;;;;;;4.37;3.33;;;1.40;99.90;;;;;;5101231;28;20184;-77
2022/04/10 03:31:13;;;;;;;8.43;3.20;;;1.30;99.90;;;;;;5119083;28;20211;-77
2022/04/10 03:33:38;;;;;;;5.67;3.53;;;1.20;99.90;;;;;;5099688;28;20199;-76
2022/04/10 03:36:05;;;;;;;6.50;3.27;;;1.20;99.90;;;;;;5118025;28;20189;-76
2022/04/10 03:38:31;;;;;;;9.67;3.80;;;1.10;99.90;;;;;;5099746;28;20667;-76
2022/04/10 03:40:56;;;;;;;10.27;3.60;;;1.10;99.90;;;;;;5118912;27;20219;-76
2022/04/10 03:43:22;;;;;;;6.07;3.63;;;1.00;99.90;;;;;;5138068;27;20195;-78
2022/04/10 03:45:48;;;;;;;6.93;3.40;;;1.00;99.90;;;;;;5138427;27;20184;-77
2022/04/10 03:48:13;;;;;;;7.83;3.53;;;1.00;99.90;;;;;;5138092;27;20291;-77
2022/04/10 03:50:39;;;;;;;7.53;3.27;;;0.90;99.90;;;;;;5116037;22;20230;-76
2022/04/10 03:53:04;;;;;;;6.50;3.33;;;0.90;99.90;;;;;;5074835;28;20178;-76
2022/04/10 03:55:32;;;;;;;7.13;3.87;;;0.90;99.90;;;;;;5057892;28;20194;-75
2022/04/10 03:57:58;;;;;;;8.03;3.17;;;0.90;99.90;;;;;;5076481;28;20549;-76
2022/04/10 04:00:23;;;;;;;6.30;3.70;;;0.80;99.90;;;;;;5083032;28;20224;-76
2022/04/10 04:02:49;;;;;;;4.87;2.93;;;0.80;99.90;;;;;;5094903;28;20205;-76
2022/04/10 04:05:14;;;;;;;5.10;3.27;;;0.80;99.90;;;;;;5076194;28;20186;-76
2022/04/10 04:07:40;;;;;;;8.13;3.47;;;0.70;99.90;;;;;;5093395;28;20181;-76
2022/04/10 04:10:07;;;;;;;9.23;4.03;;;0.70;99.90;;;;;;5093491;28;20613;-76
2022/04/10 04:12:36;;;;;;;5.43;3.70;;;0.70;99.90;;;;;;5093747;28;20205;-76
2022/04/10 04:15:03;;;;;;;7.30;3.87;;;0.70;99.90;;;;;;5093955;28;20185;-76
2022/04/10 04:17:29;;;;;;;9.80;4.13;;;0.60;99.90;;;;;;5091265;28;20205;-76
2022/04/10 04:19:55;;;;;;;4.60;3.87;;;0.60;99.90;;;;;;5075596;28;20259;-76
2022/04/10 04:22:21;;;;;;;5.77;3.77;;;0.60;99.90;;;;;;5075760;28;20185;-76
2022/04/10 04:24:46;;;;;;;7.30;4.70;;;0.60;99.90;;;;;;5075637;28;20739;-76
2022/04/10 04:27:12;;;;;;;9.23;4.37;;;0.60;99.90;;;;;;5093978;28;20185;-76
2022/04/10 04:29:38;;;;;;;10.27;3.57;;;0.50;99.90;;;;;;5075424;28;20553;-76
2022/04/10 04:32:04;;;;;;;5.63;3.73;;;0.50;99.90;;;;;;5075489;28;20214;-76
2022/04/10 04:34:29;;;;;;;4.57;3.97;;;0.50;99.90;;;;;;5093518;28;20185;-76
2022/04/10 04:36:55;;;;;;;8.07;4.00;;;0.50;99.90;;;;;;5075706;28;20239;-76
2022/04/10 04:39:20;;;;;;;9.03;4.87;;;0.50;99.90;;;;;;5075232;28;20196;-76
2022/04/10 04:41:46;;;;;;;9.50;4.37;;;0.40;99.90;;;;;;5075262;28;20549;-76
2022/04/10 04:44:12;;;;;;;5.80;3.53;;;0.50;99.90;;;;;;5093461;28;20174;-76
2022/04/10 04:46:38;;;;;;;10.73;4.37;;;0.40;99.90;;;;;;5075325;28;20658;-76
2022/04/10 04:49:04;;;;;;;6.97;4.13;;;0.40;99.90;;;;;;5093427;28;20238;-76
2022/04/10 04:51:34;;;;;;;9.27;4.33;;;0.40;99.90;;;;;;5093190;28;20271;-76
2022/04/10 04:54:01;;;;;;;7.07;4.40;;;0.40;99.90;;;;;;5093351;28;20207;-76
2022/04/10 04:56:26;;;;;;;8.30;4.30;;;0.40;99.90;;;;;;5093814;28;20180;-75
2022/04/10 04:58:52;;;;;;;7.37;4.03;;;0.40;99.90;;;;;;5093277;28;20265;-75
2022/04/10 05:01:17;;;;;;;9.53;4.43;;;0.40;99.90;;;;;;5074993;28;20245;-76
2022/04/10 05:03:43;;;;;;;9.37;4.83;;;0.40;99.90;;;;;;5075184;28;20234;-74
2022/04/10 05:06:08;;;;;;;12.40;4.50;;;0.40;99.90;;;;;;5075074;28;20664;-76
2022/04/10 05:08:34;;;;;;;8.37;4.97;;;0.50;99.90;;;;;;5093215;28;20188;-76
2022/04/10 05:11:00;;;;;;;9.53;5.23;;;0.50;99.90;;;;;;5093434;28;20198;-76
2022/04/10 05:13:26;;;;;;;7.90;4.37;;;0.50;99.90;;;;;;5093507;28;20552;-76
2022/04/10 05:15:52;;;;;;;8.73;4.80;;;0.50;99.90;;;;;;5093307;28;20195;-75
2022/04/10 05:18:19;;;;;;;8.97;4.60;;;0.60;99.90;;;;;;5093321;28;20184;-76
2022/04/10 05:20:45;;;;;;;13.67;5.53;;;0.60;99.90;;;;;;5092776;28;20274;-75
2022/04/10 05:23:11;;;;;;;10.43;6.20;;;0.60;99.90;;;;;;5093325;28;20176;-76
2022/04/10 05:25:37;;;;;;;8.53;5.63;;;0.60;99.90;;;;;;5092901;28;20270;-76
2022/04/10 05:28:03;;;;;;;8.97;5.93;;;0.60;99.90;;;;;;5074805;28;20184;-76
2022/04/10 05:30:29;;;;;;;9.57;5.83;;;0.70;99.90;;;;;;5074726;28;20735;-76
2022/04/10 05:32:54;;;;;;;11.83;6.10;;;0.70;99.90;;;;;;5074821;28;20239;-76
2022/04/10 05:35:20;;;;;;;12.00;6.33;;;0.70;99.90;;;;;;5074773;28;20186;-76
2022/04/10 05:37:45;;;;;;;13.60;6.30;;;0.70;99.90;;;;;;5092828;28;20231;-75
2022/04/10 05:40:11;;;;;;;10.47;6.13;;;0.80;99.90;;;;;;5092697;28;20216;-76
2022/04/10 05:42:44;;;;;;;11.97;5.67;;;0.80;99.90;;;;;;5092741;28;20177;-76
2022/04/10 05:45:10;;;;;;;10.47;5.77;;;0.90;99.90;;;;;;5093220;28;20267;-76
2022/04/10 05:47:38;;;;;;;9.47;5.63;;;0.90;99.90;;;;;;5074749;28;20214;-75
2022/04/10 05:50:04;;;;;;;14.40;5.97;;;0.90;99.90;;;;;;5092664;28;20243;-76
2022/04/10 05:52:29;;;;;;;12.17;5.97;;;1.00;99.90;;;;;;5093084;28;20231;-76
2022/04/10 05:54:59;;;;;;;9.47;5.73;;;1.00;99.90;;;;;;5092639;28;20185;-75
2022/04/10 05:57:25;;;;;;;16.57;6.27;;;1.00;99.90;;;;;;5092914;28;20185;-76
2022/04/10 05:59:50;;;;;;;13.43;6.63;;;1.00;99.90;;;;;;5092569;28;20311;-76
2022/04/10 06:02:16;;;;;;;10.43;6.47;;;1.10;99.90;;;;;;5092638;28;20209;-76
2022/04/10 06:04:42;;;;;;;14.33;6.73;;;1.20;99.90;;;;;;5074425;28;20189;-76
2022/04/10 06:07:07;;;;;;;10.33;6.67;;;1.20;99.90;;;;;;5092666;28;20225;-76
2022/04/10 06:09:33;;;;;;;15.23;6.93;;;1.30;99.90;;;;;;5074334;28;20177;-76
2022/04/10 06:11:58;;;;;;;14.73;6.50;;;1.30;99.90;;;;;;5092406;28;20184;-76
2022/04/10 06:14:24;;;;;;;13.87;6.90;;;1.40;99.90;;;;;;5092766;28;20238;-76
2022/04/10 06:16:50;;;;;;;13.93;7.40;;;1.50;99.90;;;;;;5092479;28;20177;-76
2022/04/10 06:19:18;;;;;;;12.33;7.23;;;1.50;99.90;;;;;;5074320;28;20178;-76
2022/04/10 06:21:44;;;;;;;13.20;7.43;;;1.60;99.90;;;;;;5074279;28;20715;-76
2022/04/10 06:24:09;;;;;;;13.03;7.13;;;1.70;99.90;;;;;;5091198;28;20177;-76
2022/04/10 06:26:35;;;;;;;11.43;7.23;;;1.70;99.90;;;;;;5092669;28;20189;-75
2022/04/10 06:29:00;;;;;;;16.17;7.17;;;1.80;99.90;;;;;;5074511;28;20246;-76
2022/04/10 06:31:26;;;;;;;16.93;7.70;;;1.90;99.90;;;;;;5094266;28;20741;-76
2022/04/10 06:33:54;;;;;;;9.27;6.73;;;2.00;99.90;;;;;;5077853;28;20719;-75
2022/04/10 06:36:19;;;;;;;15.73;7.20;;;2.10;99.90;;;;;;5095992;28;20181;-76
2022/04/10 06:38:45;;;;;;;12.80;7.63;;;2.10;99.90;;;;;;5095858;28;20181;-76
2022/04/10 06:41:10;;;;;;;11.13;7.57;;;2.20;99.90;;;;;;5095777;28;20243;-76
2022/04/10 06:43:36;;;;;;;14.73;8.13;;;2.40;99.90;;;;;;5077845;28;20552;-76
2022/04/10 06:46:03;;;;;;;13.37;7.90;;;2.50;99.90;;;;;;5095747;28;20173;-76
2022/04/10 06:48:28;;;;;;;15.37;8.90;;;2.60;99.90;;;;;;5095644;28;20163;-76
2022/04/10 06:50:54;;;;;;;15.50;8.43;;;2.70;99.90;;;;;;5095712;28;20229;-76
2022/04/10 06:53:19;;;;;;;16.33;9.00;;;2.90;99.90;;;;;;5095819;28;20182;-76
2022/04/10 06:55:45;;;;;;;15.27;8.57;;;3.10;99.90;;;;;;5096161;28;20205;-76
2022/04/10 06:58:10;;;;;;;17.30;8.43;;;3.20;99.90;;;;;;5095589;28;20668;-76
2022/04/10 07:00:38;;;;;;;12.97;8.63;;;3.40;99.90;;;;;;5095823;28;20604;-76
2022/04/10 07:03:04;;;;;;;14.33;7.47;;;3.60;99.90;;;;;;5095477;28;20180;-75
2022/04/10 07:05:30;;;;;;;11.73;7.23;;;3.70;99.90;;;;;;5095276;28;20178;-76
2022/04/10 07:07:55;;;;;;;12.63;6.93;;;3.70;99.90;;;;;;5075821;28;20193;-76
2022/04/10 07:10:21;;;;;;;12.73;6.90;;;3.70;99.90;;;;;;5095533;28;20202;-76
2022/04/10 07:12:46;;;;;;;11.90;7.07;;;3.70;99.90;;;;;;5077879;28;20248;-76
2022/04/10 07:15:12;;;;;;;10.87;7.17;;;3.90;99.90;;;;;;5075154;28;20662;-76
2022/04/10 07:17:37;;;;;;;9.77;6.70;;;3.90;99.90;;;;;;5074411;28;20650;-76
2022/04/10 07:20:03;;;;;;;14.40;6.80;;;4.00;99.90;;;;;;5074530;28;20214;-76
2022/04/10 07:25:13;;;;;;;15.13;6.70;;;4.10;99.90;;;;;;5074913;28;20189;-76
2022/04/10 07:27:38;;;;;;;14.23;7.03;;;4.20;99.90;;;;;;5056631;28;20646;-74
2022/04/10 07:30:04;;;;;;;13.77;7.00;;;4.30;99.90;;;;;;5074521;28;20202;-75
2022/04/10 07:32:30;;;;;;;11.70;6.27;;;4.30;99.90;;;;;;5056896;28;20194;-74
2022/04/10 07:34:56;;;;;;;13.43;6.13;;;4.50;99.90;;;;;;5073349;28;20179;-76
2022/04/10 07:37:21;;;;;;;10.07;6.00;;;4.50;99.90;;;;;;5073358;28;20665;-76
2022/04/10 07:39:47;;;;;;;10.57;6.60;;;4.60;99.90;;;;;;5074319;28;20199;-75
2022/04/10 07:42:12;;;;;;;10.70;6.77;;;4.70;99.90;;;;;;5073718;28;20197;-75
2022/04/10 07:44:38;;;;;;;13.03;6.17;;;4.80;99.90;;;;;;5073921;28;20175;-76
2022/04/10 07:49:48;;;;;;;12.50;6.43;;;5.10;99.90;;;;;;5074027;28;20546;-75
2022/04/10 07:52:13;;;;;;;15.27;6.20;;;5.20;1.00;;;;;;5074188;28;20159;-75
2022/04/10 07:54:39;;;;;;;8.03;4.80;;;5.50;1.00;;;;;;5074212;28;20190;-76
2022/04/10 07:57:05;;;;;;;9.77;4.57;;;5.60;99.90;;;;;;5074385;28;20175;-75
2022/04/10 07:59:30;;;;;;;12.80;5.30;;;5.80;1.00;;;;;;5073844;28;20179;-74
2022/04/10 08:01:56;;;;;;;8.90;4.40;;;6.00;1.00;;;;;;5073961;28;20177;-74
2022/04/10 08:04:22;;;;;;;11.57;4.70;;;6.10;99.90;;;;;;5073962;28;20759;-77
2022/04/10 08:06:47;;;;;;;9.50;4.17;;;6.10;1.00;;;;;;5074077;28;20167;-76
2022/04/10 08:09:13;;;;;;;11.13;3.87;;;6.30;1.00;;;;;;5055560;28;20180;-77
2022/04/10 08:11:39;;;;;;;15.27;4.70;;;6.40;1.00;;;;;;5073584;28;20210;-76
2022/04/10 08:14:05;;;;;;;8.83;3.00;;;6.60;99.90;;;;;;5055849;28;20650;-77
2022/04/10 08:16:30;;;;;;;13.60;3.73;;;6.60;99.90;;;;;;5074260;28;20219;-75
2022/04/10 08:18:56;;;;;;;15.23;3.90;;;6.70;99.90;;;;;;5055875;28;20210;-76
2022/04/10 08:21:21;;;;;;;10.67;4.00;;;6.80;1.00;;;;;;5073558;28;20211;-76
2022/04/10 08:23:47;;;;;;;13.17;3.43;;;6.80;1.00;;;;;;5073980;28;20175;-77
2022/04/10 08:26:13;;;;;;;13.37;3.37;;;6.80;99.90;;;;;;5056044;28;20262;-78
2022/04/10 08:28:39;;;;;;;8.73;3.50;;;6.80;1.00;;;;;;5055933;28;20661;-77
2022/04/10 08:31:05;;;;;;;10.87;3.53;;;6.80;99.90;;;;;;5055760;28;20206;-76
2022/04/10 08:33:30;;;;;;;11.53;3.13;;;7.00;99.90;;;;;;5056045;28;20183;-76
2022/04/10 08:35:56;;;;;;;6.97;3.70;;;7.00;99.90;;;;;;5073752;28;20218;-77
2022/04/10 08:38:22;;;;;;;13.80;3.30;;;7.20;64.80;;;;;;5055792;28;20240;-77
2022/04/10 08:40:49;;;;;;;14.47;2.90;;;7.20;1.00;;;;;;5073494;28;20226;-76
2022/04/10 08:43:15;;;;;;;10.10;3.40;;;7.20;99.90;;;;;;5073678;28;20183;-77
2022/04/10 08:45:43;;;;;;;13.30;2.63;;;7.30;1.00;;;;;;5073921;28;20175;-76
2022/04/10 08:48:10;;;;;;;9.77;2.30;;;7.30;99.90;;;;;;5073780;28;20186;-77
2022/04/10 08:50:36;;;;;;;10.17;2.53;;;7.40;99.90;;;;;;5073457;28;20646;-77
2022/04/10 08:53:02;;;;;;;12.27;2.80;;;7.50;90.00;;;;;;5055504;28;20670;-76
2022/04/10 08:55:28;;;;;;;6.77;2.57;;;7.60;1.00;;;;;;5055197;28;20182;-78
2022/04/10 08:57:54;;;;;;;5.63;2.30;;;7.70;1.00;;;;;;5074060;28;20179;-77
2022/04/10 09:00:22;;;;;;;8.00;2.53;;;7.60;1.00;;;;;;5074822;28;20215;-78
2022/04/10 09:02:52;;;;;;;6.07;2.17;;;7.60;43.00;;;;;;5057340;28;20739;-79
2022/04/10 09:05:23;;;;;;;4.33;1.73;;;7.60;1.00;;;;;;5075613;28;20588;-78
2022/04/10 09:08:12;;;;;;;5.97;2.40;;;7.60;1.00;;;;;;5076097;28;20637;-78
2022/04/10 09:11:02;;;;;;;5.87;1.97;;;7.80;1.00;;;;;;5075977;28;20195;-78
2022/04/10 09:13:36;;;;;;;5.00;2.20;;;7.90;1.00;;;;;;5073924;28;20180;-78
2022/04/10 09:16:29;;;;;;;6.47;2.23;;;8.00;1.00;;;;;;5076288;28;20181;-77
2022/04/10 09:19:06;;;;;;;6.17;2.00;;;8.10;1.00;;;;;;5096751;28;20298;-78
2022/04/10 09:21:36;;;;;;;4.60;1.87;;;8.20;1.00;;;;;;5095077;28;20202;-77
2022/04/10 09:24:07;;;;;;;7.97;2.20;;;8.10;1.00;;;;;;5098178;28;20251;-77
2022/04/10 09:26:54;;;;;;;4.47;2.00;;;8.00;1.00;;;;;;5102117;28;20178;-77
2022/04/10 09:29:21;;;;;;;4.93;2.07;;;8.00;1.00;;;;;;5096673;28;20265;-77
2022/04/10 09:31:47;;;;;;;11.17;2.10;;;7.90;1.00;;;;;;5095036;28;20198;-76
2022/04/10 09:34:18;;;;;;;3.17;1.77;;;7.80;1.00;;;;;;5092800;28;20264;-75
2022/04/10 09:36:46;;;;;;;6.73;2.20;;;7.80;1.00;;;;;;5092891;28;20212;-75
2022/04/10 09:39:14;;;;;;;6.90;1.87;;;7.80;1.00;;;;;;5091898;28;20186;-75
2022/04/10 09:41:42;;;;;;;4.30;1.90;;;7.80;1.00;;;;;;5093968;28;20217;-76
2022/04/10 09:44:12;;;;;;;7.70;1.80;;;7.80;1.00;;;;;;5077171;28;20192;-76
2022/04/10 09:46:38;;;;;;;8.80;2.70;;;7.80;1.00;;;;;;5072569;28;20177;-75
2022/04/10 09:49:10;;;;;;;7.13;2.30;;;7.90;1.00;;;;;;5072562;28;20260;-75
2022/04/10 09:52:03;;;;;;;6.20;2.47;;;8.00;1.00;;;;;;5076803;28;20221;-76
2022/04/10 09:54:40;;;;;;;4.90;1.90;;;8.00;1.00;;;;;;5074515;28;20186;-76
2022/04/10 09:57:26;;;;;;;5.27;2.43;;;8.20;1.00;;;;;;5074555;28;20190;-75
2022/04/10 09:59:52;;;;;;;4.90;1.90;;;8.30;1.00;;;;;;5092238;28;20304;-75
2022/04/10 10:02:19;;;;;;;3.27;1.53;;;8.50;1.00;;;;;;5074278;28;20225;-77
2022/04/10 10:04:47;;;;;;;5.67;1.87;;;8.60;1.00;;;;;;5075921;28;20182;-77
2022/04/10 10:07:18;;;;;;;5.43;1.73;;;8.80;1.00;;;;;;5095977;28;20188;-77
2022/04/10 10:09:46;;;;;;;5.73;2.10;;;8.90;1.00;;;;;;5079437;28;20170;-77
2022/04/10 10:12:12;;;;;;;4.30;2.00;;;8.90;1.00;;;;;;5078977;28;20666;-78
2022/04/10 10:14:39;;;;;;;9.50;2.13;;;9.00;1.00;;;;;;5096431;28;20260;-77
2022/04/10 10:17:06;;;;;;;4.10;1.73;;;9.00;1.00;;;;;;5079156;28;20309;-77
2022/04/10 10:19:38;;;;;;;6.93;2.57;;;8.90;1.00;;;;;;5079072;28;20179;-78
2022/04/10 10:22:09;;;;;;;3.90;1.97;;;8.80;1.00;;;;;;5109468;28;20182;-77
2022/04/10 10:25:00;;;;;;;7.27;2.40;;;8.80;1.00;;;;;;5118132;28;20169;-78
2022/04/10 10:28:04;;;;;;;10.37;2.20;;;8.80;1.00;;;;;;5117401;28;20641;-78
2022/04/10 10:30:40;;;;;;;4.73;1.70;;;8.80;1.00;;;;;;5084535;28;20308;-78
2022/04/10 10:33:19;;;;;;;4.80;1.90;;;8.90;1.00;;;;;;5118726;28;20164;-78
2022/04/10 10:35:50;;;;;;;7.33;2.00;;;8.80;1.00;;;;;;5117520;28;20157;-76
2022/04/10 10:38:25;;;;;;;4.90;1.70;;;8.80;1.00;;;;;;5099193;28;20166;-76
2022/04/10 10:40:53;;;;;;;10.47;2.03;;;8.70;1.00;;;;;;5117424;28;20211;-77
2022/04/10 10:43:24;;;;;;;5.77;1.00;;;8.70;1.00;;;;;;5098777;28;20191;-77
2022/04/10 10:45:52;;;;;;;2.97;1.30;;;8.70;99.90;;;;;;5099440;28;20182;-77
2022/04/10 10:48:25;;;;;;;5.63;1.50;;;8.70;1.00;;;;;;5098692;28;20185;-77
2022/04/10 10:50:52;;;;;;;3.37;1.00;;;8.90;99.90;;;;;;5098387;28;20216;-77
2022/04/10 10:53:48;;;;;;;1.13;0.80;;;9.00;1.00;;;;;;5117137;28;20181;-77
2022/04/10 10:56:32;;;;;;;5.80;2.57;;;9.10;1.00;;;;;;5098464;28;20172;-77
2022/04/10 10:59:26;;;;;;;5.03;1.60;;;9.20;1.00;;;;;;5116639;28;20169;-77
2022/04/10 11:01:52;;;;;;;3.37;1.53;;;9.30;1.00;;;;;;5116254;28;20553;-75
2022/04/10 11:04:21;;;;;;;2.63;1.07;;;9.20;1.00;;;;;;5097795;28;20177;-78
2022/04/10 11:06:48;;;;;;;5.53;1.13;;;9.30;1.00;;;;;;5117044;28;20181;-79
2022/04/10 11:09:30;;;;;;;3.20;1.10;;;9.30;1.00;;;;;;5116632;28;20173;-78
2022/04/10 11:11:58;;;;;;;4.13;1.20;;;9.20;1.00;;;;;;5098952;28;20204;-78
2022/04/10 11:14:39;;;;;;;5.27;1.27;;;9.20;99.90;;;;;;5117030;28;20174;-77
2022/04/10 11:17:09;;;;;;;3.60;1.10;;;9.20;1.00;;;;;;5098626;28;20193;-77
2022/04/10 11:19:36;;;;;;;2.60;0.93;;;9.30;1.00;;;;;;5116967;28;20180;-78
2022/04/10 11:22:02;;;;;;;5.80;1.40;;;9.20;99.90;;;;;;5099130;28;20253;-78
2022/04/10 11:24:29;;;;;;;3.10;1.57;;;9.40;1.00;;;;;;5098962;28;20532;-79
2022/04/10 11:26:54;;;;;;;3.47;0.90;;;9.60;1.00;;;;;;5097414;28;20189;-76
2022/04/10 11:29:20;;;;;;;3.73;1.23;;;9.70;99.90;;;;;;5115300;28;20564;-76
2022/04/10 11:31:53;;;;;;;3.53;1.07;;;9.60;99.90;;;;;;5116039;28;20216;-76
2022/04/10 11:34:26;;;;;;;2.93;1.10;;;9.70;99.90;;;;;;5088739;28;20210;-78
2022/04/10 11:36:56;;;;;;;6.37;1.47;;;9.70;99.90;;;;;;5076778;28;20256;-78
2022/04/10 11:39:35;;;;;;;4.20;1.43;;;9.60;99.90;;;;;;5059050;28;20206;-78
2022/04/10 11:42:07;;;;;;;2.47;1.00;;;9.50;99.90;;;;;;5056805;28;20186;-78
2022/04/10 11:44:32;;;;;;;4.80;1.53;;;9.50;99.90;;;;;;5056643;28;20282;-76
2022/04/10 11:46:59;;;;;;;6.10;1.00;;;9.50;99.90;;;;;;5056061;28;20214;-75
2022/04/10 11:49:25;;;;;;;3.70;0.83;;;9.60;99.90;;;;;;5056124;28;20210;-76
2022/04/10 11:52:00;;;;;;;3.40;1.10;;;9.70;99.90;;;;;;5074033;28;20245;-76
2022/04/10 11:54:37;;;;;;;5.00;1.10;;;9.80;99.90;;;;;;5056125;28;20261;-78
2022/04/10 11:57:07;;;;;;;1.53;0.63;;;9.90;99.90;;;;;;5057732;28;20170;-76
2022/04/10 11:59:43;;;;;;;2.97;0.83;;;9.90;99.90;;;;;;5073799;28;20179;-77
2022/04/10 12:02:14;;;;;;;5.83;1.20;;;10.00;99.90;;;;;;5055811;28;20239;-76
2022/04/10 12:04:41;;;;;;;4.03;0.93;;;10.10;99.90;;;;;;5074131;28;20183;-76
2022/04/10 12:07:18;;;;;;;2.17;0.70;;;10.00;99.90;;;;;;5073641;28;20232;-76
2022/04/10 12:09:48;;;;;;;3.83;1.10;;;10.10;99.90;;;;;;5055788;28;20179;-76
2022/04/10 12:12:16;;;;;;;3.43;1.20;;;10.00;99.90;;;;;;5074300;28;20160;-77
2022/04/10 12:14:41;;;;;;;2.83;0.93;;;10.10;99.90;;;;;;5055829;28;20179;-76
2022/04/10 12:17:18;;;;;;;5.23;0.93;;;10.10;99.90;;;;;;5073541;28;20177;-76
2022/04/10 12:19:43;;;;;;;1.83;0.67;;;10.10;99.90;;;;;;5073728;28;20174;-75
2022/04/10 12:22:10;;;;;;;2.60;0.90;;;10.10;99.90;;;;;;5055508;28;20182;-77
2022/04/10 12:24:39;;;;;;;3.37;0.73;;;10.00;99.90;;;;;;5055602;28;20269;-76
2022/04/10 12:27:08;;;;;;;1.90;0.70;;;10.20;99.90;;;;;;5073711;28;20206;-76
2022/04/10 12:29:34;;;;;;;3.23;0.63;;;10.30;99.90;;;;;;5055108;28;20183;-77
2022/04/10 12:32:01;;;;;;;3.80;1.00;;;10.60;99.90;;;;;;5073906;28;20662;-76
2022/04/10 12:34:34;;;;;;;1.60;0.70;;;10.60;99.90;;;;;;5073417;28;20261;-77
2022/04/10 12:37:11;;;;;;;2.23;0.93;;;10.70;99.90;;;;;;5047487;28;20221;-76
2022/04/10 12:39:37;;;;;;;3.13;0.93;;;10.80;99.90;;;;;;5055867;28;20232;-77
2022/04/10 12:42:07;;;;;;;2.13;1.30;;;10.90;99.90;;;;;;5055923;28;20186;-77
2022/04/10 12:44:37;;;;;;;1.80;0.73;;;10.70;99.90;;;;;;5055470;28;20278;-76
2022/04/10 12:47:04;;;;;;;1.13;0.60;;;10.70;99.90;;;;;;5073843;28;20190;-77
2022/04/10 12:49:30;;;;;;;1.33;0.70;;;10.90;99.90;;;;;;5055676;28;20187;-77
2022/04/10 12:52:03;;;;;;;3.20;0.90;;;10.70;99.90;;;;;;5055325;28;20245;-78
2022/04/10 12:54:44;;;;;;;4.23;0.90;;;10.90;99.90;;;;;;5074385;28;20213;-76
2022/04/10 12:57:13;;;;;;;3.30;1.00;;;11.00;99.90;;;;;;5055892;28;20171;-76
2022/04/10 12:59:46;;;;;;;1.93;0.80;;;11.00;99.90;;;;;;5074235;28;20224;-77
2022/04/10 13:02:28;;;;;;;3.43;0.80;;;11.20;99.90;;;;;;5057091;28;20179;-77
2022/04/10 13:04:59;;;;;;;2.97;0.77;;;11.20;99.90;;;;;;5074357;28;20182;-77